createdAt,value
2022-12-04T00:01:17.933Z,38.15
2022-12-04T00:03:44.690Z,40.63
2022-12-04T00:06:15.176Z,41.03
2022-12-04T00:08:43.457Z,41.92
2022-12-04T00:11:11.810Z,42.20
2022-12-04T00:13:39.119Z,39.72
2022-12-04T00:16:08.100Z,45.33
2022-12-04T00:18:35.798Z,41.38
2022-12-04T00:21:07.183Z,42.78
2022-12-04T00:23:35.249Z,42.17
2022-12-04T00:26:07.496Z,44.13
2022-12-04T00:28:36.668Z,42.70
2022-12-04T00:31:08.606Z,42.25
2022-12-04T00:33:36.712Z,42.10
2022-12-04T00:36:06.542Z,40.33
2022-12-04T00:38:33.691Z,42.05
2022-12-04T00:41:03.338Z,43.67
2022-12-04T00:43:31.326Z,44.22
2022-12-04T00:45:58.489Z,46.97
2022-12-04T00:48:25.275Z,47.33
2022-12-04T00:50:53.083Z,44.58
2022-12-04T00:53:19.968Z,43.40
2022-12-04T00:55:47.406Z,43.33
2022-12-04T00:58:14.615Z,46.78
2022-12-04T01:00:42.151Z,49.70
2022-12-04T01:03:09.802Z,47.67
2022-12-04T01:05:45.287Z,45.25
2022-12-04T01:08:12.954Z,46.97
2022-12-04T01:10:42.195Z,44.53
2022-12-04T01:13:09.300Z,46.17
2022-12-04T01:15:40.490Z,43.78
2022-12-04T01:18:07.354Z,41.20
2022-12-04T01:20:34.388Z,44.97
2022-12-04T01:23:01.231Z,43.83
2022-12-04T01:25:28.291Z,45.97
2022-12-04T01:27:55.025Z,48.00
2022-12-04T01:30:21.810Z,46.03
2022-12-04T01:32:48.549Z,43.67
2022-12-04T01:35:15.332Z,43.97
2022-12-04T01:37:42.057Z,41.28
2022-12-04T01:40:16.444Z,43.72
2022-12-04T01:42:43.354Z,42.20
2022-12-04T01:45:28.632Z,45.03
2022-12-04T01:47:58.750Z,45.90
2022-12-04T01:50:25.705Z,41.15
2022-12-04T01:52:52.626Z,43.20
2022-12-04T01:55:19.558Z,42.30
2022-12-04T01:57:46.734Z,42.88
2022-12-04T02:00:16.382Z,42.72
2022-12-04T02:02:47.695Z,42.38
2022-12-04T02:05:20.683Z,47.72
2022-12-04T02:07:50.493Z,41.88
2022-12-04T02:10:24.579Z,47.40
2022-12-04T02:13:00.401Z,42.70
2022-12-04T02:15:51.862Z,43.67
2022-12-04T02:18:24.474Z,43.15
2022-12-04T02:21:18.440Z,41.92
2022-12-04T02:23:57.069Z,41.85
2022-12-04T02:27:01.288Z,44.17
2022-12-04T02:29:48.279Z,44.22
2022-12-04T02:32:27.355Z,42.88
2022-12-04T02:35:06.277Z,43.72
2022-12-04T02:37:40.824Z,45.75
2022-12-04T02:40:22.950Z,45.38
2022-12-04T02:43:07.479Z,43.58
2022-12-04T02:45:51.592Z,47.75
2022-12-04T02:48:20.784Z,40.35
2022-12-04T02:50:51.144Z,44.58
2022-12-04T02:53:23.350Z,42.28
2022-12-04T02:56:20.781Z,39.55
2022-12-04T02:59:02.429Z,41.67
2022-12-04T03:01:34.553Z,46.15
2022-12-04T03:04:18.436Z,45.70
2022-12-04T03:06:52.790Z,45.17
2022-12-04T03:09:31.227Z,44.90
2022-12-04T03:12:06.222Z,47.80
2022-12-04T03:14:38.418Z,45.85
2022-12-04T03:17:14.374Z,42.28
2022-12-04T03:19:51.122Z,42.33
2022-12-04T03:22:19.790Z,39.72
2022-12-04T03:24:51.082Z,44.75
2022-12-04T03:27:43.699Z,42.58
2022-12-04T03:30:22.448Z,42.28
2022-12-04T03:33:12.100Z,44.38
2022-12-04T03:36:01.173Z,42.40
2022-12-04T03:38:46.629Z,43.83
2022-12-04T03:41:16.002Z,41.88
2022-12-04T03:44:05.229Z,41.15
2022-12-04T03:46:39.346Z,40.05
2022-12-04T03:49:21.248Z,39.67
2022-12-04T03:52:23.408Z,40.22
2022-12-04T03:54:59.528Z,42.47
2022-12-04T03:57:32.136Z,39.97
2022-12-04T04:00:17.376Z,42.13
2022-12-04T04:02:57.500Z,41.20
2022-12-04T04:05:25.984Z,36.47
2022-12-04T04:08:17.846Z,37.05
2022-12-04T04:10:45.325Z,37.42
2022-12-04T04:13:35.835Z,38.13
2022-12-04T04:16:23.931Z,36.45
2022-12-04T04:19:11.665Z,36.70
2022-12-04T04:22:00.398Z,34.92
2022-12-04T04:24:53.853Z,38.45
2022-12-04T04:27:20.639Z,33.58
2022-12-04T04:29:52.261Z,32.33
2022-12-04T04:32:45.487Z,34.40
2022-12-04T04:35:39.367Z,33.30
2022-12-04T04:40:54.249Z,32.28
2022-12-04T04:43:49.328Z,36.53
2022-12-04T04:46:29.901Z,37.08
2022-12-04T04:49:00.829Z,34.05
2022-12-04T04:51:29.292Z,36.25
2022-12-04T04:53:59.358Z,38.25
2022-12-04T04:56:28.871Z,36.25
2022-12-04T04:58:55.679Z,35.45
2022-12-04T05:01:26.715Z,35.03
2022-12-04T05:03:53.496Z,36.65
2022-12-04T05:06:20.288Z,36.90
2022-12-04T05:08:49.232Z,36.45
2022-12-04T05:11:18.151Z,40.72
2022-12-04T05:13:44.890Z,40.97
2022-12-04T05:16:14.200Z,38.22
2022-12-04T05:18:43.227Z,40.70
2022-12-04T05:21:18.984Z,40.33
2022-12-04T05:23:45.696Z,41.45
2022-12-04T05:26:12.631Z,40.08
2022-12-04T05:28:41.145Z,39.35
2022-12-04T05:31:08.059Z,38.85
2022-12-04T05:33:34.960Z,37.83
2022-12-04T05:36:05.099Z,38.20
2022-12-04T05:38:32.195Z,40.03
2022-12-04T05:41:03.541Z,42.35
2022-12-04T05:43:30.661Z,40.88
2022-12-04T05:46:06.149Z,41.63
2022-12-04T05:48:34.829Z,44.40
2022-12-04T05:51:05.609Z,43.17
2022-12-04T05:53:32.319Z,41.83
2022-12-04T05:56:01.264Z,42.67
2022-12-04T05:58:29.155Z,43.83
2022-12-04T06:00:56.199Z,46.50
2022-12-04T06:03:23.151Z,47.25
2022-12-04T06:05:50.010Z,44.17
2022-12-04T06:08:17.334Z,46.60
2022-12-04T06:10:44.145Z,45.88
2022-12-04T06:13:11.104Z,45.05
2022-12-04T06:15:39.701Z,49.28
2022-12-04T06:18:06.545Z,47.33
2022-12-04T06:20:33.811Z,46.35
2022-12-04T06:23:00.845Z,45.80
2022-12-04T06:25:27.769Z,45.67
2022-12-04T06:27:54.519Z,47.30
2022-12-04T06:30:22.603Z,48.75
2022-12-04T06:32:49.320Z,44.85
2022-12-04T06:35:16.369Z,45.53
2022-12-04T06:37:43.480Z,44.13
2022-12-04T06:40:10.700Z,45.58
2022-12-04T06:42:37.482Z,45.42
2022-12-04T06:45:04.579Z,43.10
2022-12-04T06:47:31.339Z,45.05
2022-12-04T06:49:58.433Z,43.85
2022-12-04T06:52:25.400Z,41.65
2022-12-04T06:54:52.037Z,43.45
2022-12-04T06:57:18.760Z,46.15
2022-12-04T06:59:45.666Z,39.90
2022-12-04T07:02:12.544Z,41.45
2022-12-04T07:04:39.362Z,45.38
2022-12-04T07:07:08.113Z,40.97
2022-12-04T07:09:34.918Z,40.90
2022-12-04T07:12:01.647Z,38.72
2022-12-04T07:14:28.421Z,43.33
2022-12-04T07:16:55.521Z,41.45
2022-12-04T07:19:22.247Z,41.40
2022-12-04T07:21:48.964Z,44.22
2022-12-04T07:24:17.842Z,41.30
2022-12-04T07:26:45.123Z,39.72
2022-12-04T07:29:12.182Z,42.97
2022-12-04T07:31:39.029Z,38.78
2022-12-04T07:34:05.850Z,42.10
2022-12-04T07:36:33.747Z,36.05
2022-12-04T07:39:00.607Z,35.97
2022-12-04T07:41:27.421Z,34.33
2022-12-04T07:43:54.847Z,34.30
2022-12-04T07:46:24.800Z,30.98
2022-12-04T07:48:51.910Z,37.35
2022-12-04T07:51:21.702Z,34.17
2022-12-04T07:53:49.203Z,36.92
2022-12-04T07:56:16.881Z,40.92
2022-12-04T07:58:44.124Z,33.60
2022-12-04T08:01:13.410Z,38.38
2022-12-04T08:03:47.047Z,37.55
2022-12-04T08:06:16.349Z,36.95
2022-12-04T08:08:43.104Z,32.92
2022-12-04T08:11:12.925Z,36.50
2022-12-04T08:13:40.431Z,38.85
2022-12-04T08:16:09.466Z,38.40
2022-12-04T08:18:36.624Z,43.22
2022-12-04T08:21:12.047Z,39.08
2022-12-04T08:23:40.701Z,35.95
2022-12-04T08:26:08.650Z,36.38
2022-12-04T08:28:36.035Z,38.67
2022-12-04T08:31:14.690Z,38.35
2022-12-04T08:33:42.906Z,37.97
2022-12-04T08:36:12.359Z,40.05
2022-12-04T08:38:40.264Z,42.00
2022-12-04T08:41:09.322Z,38.28
2022-12-04T08:43:36.072Z,38.58
2022-12-04T08:46:05.846Z,38.55
2022-12-04T08:48:33.630Z,38.85
2022-12-04T08:51:01.620Z,35.53
2022-12-04T08:53:28.375Z,41.28
2022-12-04T08:55:55.402Z,37.95
2022-12-04T08:58:22.138Z,38.13
2022-12-04T09:00:49.226Z,39.20
2022-12-04T09:03:23.656Z,34.97
2022-12-04T09:06:00.149Z,37.75
2022-12-04T09:08:27.482Z,39.72
2022-12-04T09:10:54.191Z,37.65
2022-12-04T09:13:21.081Z,40.40
2022-12-04T09:15:48.360Z,36.08
2022-12-04T09:18:15.497Z,36.55
2022-12-04T09:20:45.235Z,34.28
2022-12-04T09:23:11.962Z,32.53
2022-12-04T09:25:38.771Z,32.20
2022-12-04T09:28:05.608Z,35.85
2022-12-04T09:30:32.435Z,35.80
2022-12-04T09:32:59.330Z,38.45
2022-12-04T09:35:27.289Z,31.83
2022-12-04T09:37:54.641Z,28.92
2022-12-04T09:40:36.828Z,30.00
2022-12-04T09:43:57.955Z,31.87
2022-12-04T09:46:54.212Z,27.17
2022-12-04T09:49:29.427Z,31.38
2022-12-04T09:52:00.437Z,24.75
2022-12-04T09:54:35.331Z,26.77
2022-12-04T09:57:25.480Z,27.70
2022-12-04T09:59:53.306Z,30.95
2022-12-04T10:02:42.592Z,32.92
2022-12-04T10:05:47.217Z,26.73
2022-12-04T10:08:40.361Z,27.05
2022-12-04T10:11:32.881Z,25.52
2022-12-04T10:14:23.892Z,28.60
2022-12-04T10:17:07.705Z,26.45
2022-12-04T10:19:52.178Z,27.23
2022-12-04T10:22:47.704Z,27.17
2022-12-04T10:25:24.330Z,27.92
2022-12-04T10:27:56.865Z,28.63
2022-12-04T10:30:37.368Z,27.02
2022-12-04T10:33:23.143Z,25.15
2022-12-04T10:35:52.780Z,24.95
2022-12-04T10:38:35.362Z,22.27
2022-12-04T10:41:30.958Z,21.67
2022-12-04T10:43:57.714Z,23.05
2022-12-04T10:46:33.821Z,22.80
2022-12-04T10:49:04.698Z,22.88
2022-12-04T10:51:42.386Z,21.00
2022-12-04T10:54:24.269Z,19.17
2022-12-04T10:57:09.011Z,18.17
2022-12-04T10:59:38.933Z,14.25
2022-12-04T11:02:22.746Z,16.65
2022-12-04T11:05:22.929Z,15.43
2022-12-04T11:07:51.308Z,17.95
2022-12-04T11:10:24.208Z,15.40
2022-12-04T11:12:56.391Z,14.50
2022-12-04T11:15:24.423Z,16.58
2022-12-04T11:17:53.375Z,14.32
2022-12-04T11:20:26.388Z,17.30
2022-12-04T11:22:58.510Z,15.23
2022-12-04T11:25:37.276Z,15.85
2022-12-04T11:28:05.663Z,13.35
2022-12-04T11:30:36.459Z,16.52
2022-12-04T11:33:07.196Z,13.70
2022-12-04T11:35:34.114Z,15.77
2022-12-04T11:38:19.145Z,16.45
2022-12-04T11:40:59.237Z,16.10
2022-12-04T11:43:28.614Z,16.20
2022-12-04T11:46:00.692Z,17.05
2022-12-04T11:48:30.107Z,16.65
2022-12-04T11:51:08.190Z,16.88
2022-12-04T11:53:44.784Z,18.08
2022-12-04T11:56:23.327Z,16.67
2022-12-04T11:59:16.383Z,15.80
2022-12-04T12:02:25.157Z,17.23
2022-12-04T12:05:20.934Z,16.02
2022-12-04T12:08:24.363Z,17.92
2022-12-04T12:11:10.306Z,17.35
2022-12-04T12:13:49.861Z,15.07
2022-12-04T12:16:19.557Z,17.20
2022-12-04T12:19:10.582Z,14.98
2022-12-04T12:21:43.366Z,15.15
2022-12-04T12:24:18.839Z,16.15
2022-12-04T12:27:09.560Z,13.43
2022-12-04T12:30:00.308Z,16.63
2022-12-04T12:32:55.268Z,14.27
2022-12-04T12:35:32.632Z,15.20
2022-12-04T12:38:10.831Z,14.25
2022-12-04T12:40:46.953Z,13.98
2022-12-04T12:43:16.525Z,14.07
2022-12-04T12:45:53.070Z,14.13
2022-12-04T12:48:46.252Z,14.10
2022-12-04T12:51:31.972Z,15.87
2022-12-04T12:54:22.755Z,15.23
2022-12-04T12:56:55.147Z,14.20
2022-12-04T12:59:27.230Z,14.75
2022-12-04T13:04:50.383Z,13.73
2022-12-04T13:07:26.255Z,15.55
2022-12-04T13:10:11.462Z,15.50
2022-12-04T13:12:56.603Z,17.70
2022-12-04T13:15:27.069Z,15.70
2022-12-04T13:17:56.143Z,17.08
2022-12-04T13:20:31.910Z,14.85
2022-12-04T13:23:16.474Z,15.68
2022-12-04T13:25:58.567Z,19.77
2022-12-04T13:28:40.041Z,16.77
2022-12-04T13:31:31.564Z,17.35
2022-12-04T13:34:27.424Z,18.52
2022-12-04T13:37:06.013Z,16.50
2022-12-04T13:39:33.402Z,20.27
2022-12-04T13:42:03.591Z,19.08
2022-12-04T13:44:32.698Z,22.42
2022-12-04T13:47:06.619Z,17.33
2022-12-04T13:49:38.859Z,19.83
2022-12-04T13:52:21.770Z,18.08
2022-12-04T13:54:59.204Z,16.05
2022-12-04T13:57:28.373Z,17.33
2022-12-04T14:00:07.397Z,16.90
2022-12-04T14:02:44.498Z,15.50
2022-12-04T14:05:12.264Z,19.35
2022-12-04T14:07:42.623Z,19.15
2022-12-04T14:10:28.616Z,20.75
2022-12-04T14:13:12.557Z,20.83
2022-12-04T14:15:40.187Z,18.23
2022-12-04T14:18:20.516Z,19.02
2022-12-04T14:21:00.519Z,16.85
2022-12-04T14:23:35.890Z,18.85
2022-12-04T14:26:05.286Z,17.77
2022-12-04T14:28:35.992Z,16.60
2022-12-04T14:31:25.842Z,15.85
2022-12-04T14:34:29.757Z,18.77
2022-12-04T14:36:59.044Z,19.35
2022-12-04T14:39:46.983Z,18.85
2022-12-04T14:42:19.479Z,20.27
2022-12-04T14:44:51.436Z,22.37
2022-12-04T14:47:20.859Z,23.17
2022-12-04T14:50:10.992Z,22.30
2022-12-04T14:52:45.948Z,24.35
2022-12-04T14:55:41.577Z,23.13
2022-12-04T14:58:30.403Z,21.80
2022-12-04T15:01:02.320Z,26.50
2022-12-04T15:03:34.572Z,26.67
2022-12-04T15:06:12.689Z,29.08
2022-12-04T15:08:49.787Z,28.50
2022-12-04T15:11:39.572Z,26.08
2022-12-04T15:14:16.304Z,29.15
2022-12-04T15:16:43.544Z,26.98
2022-12-04T15:19:21.312Z,27.95
2022-12-04T15:21:49.133Z,28.10
2022-12-04T15:24:22.659Z,28.75
2022-12-04T15:26:52.988Z,25.88
2022-12-04T15:29:32.172Z,31.70
2022-12-04T15:32:03.102Z,28.45
2022-12-04T15:34:41.592Z,30.58
2022-12-04T15:37:13.616Z,30.42
2022-12-04T15:39:41.108Z,31.20
2022-12-04T15:42:17.613Z,32.47
2022-12-04T15:45:09.972Z,31.08
2022-12-04T15:47:58.233Z,31.05
2022-12-04T15:50:28.191Z,31.45
2022-12-04T15:53:08.384Z,34.38
2022-12-04T15:55:53.884Z,31.33
2022-12-04T15:58:31.647Z,36.25
2022-12-04T16:00:59.974Z,32.10
2022-12-04T16:03:33.244Z,33.83
2022-12-04T16:08:37.167Z,32.10
2022-12-04T16:11:05.858Z,35.30
2022-12-04T16:13:36.243Z,38.88
2022-12-04T16:16:17.000Z,40.47
2022-12-04T16:18:45.286Z,40.40
2022-12-04T16:21:24.912Z,37.65
2022-12-04T16:23:51.633Z,42.42
2022-12-04T16:26:20.112Z,44.35
2022-12-04T16:28:47.589Z,42.90
2022-12-04T16:31:16.985Z,38.05
2022-12-04T16:33:43.743Z,41.35
2022-12-04T16:36:12.920Z,40.13
2022-12-04T16:38:39.678Z,43.88
2022-12-04T16:41:07.011Z,40.28
2022-12-04T16:43:33.823Z,41.42
2022-12-04T16:46:01.946Z,39.47
2022-12-04T16:48:34.658Z,41.70
2022-12-04T16:51:01.591Z,40.17
2022-12-04T16:53:28.357Z,45.60
2022-12-04T16:55:55.060Z,40.92
2022-12-04T16:58:21.978Z,39.60
2022-12-04T17:00:54.938Z,40.78
2022-12-04T17:03:26.595Z,43.75
2022-12-04T17:05:53.352Z,46.47
2022-12-04T17:08:20.489Z,40.13
2022-12-04T17:10:47.525Z,41.65
2022-12-04T17:13:14.287Z,43.83
2022-12-04T17:15:40.998Z,45.00
2022-12-04T17:18:12.190Z,40.22
2022-12-04T17:20:44.695Z,41.33
2022-12-04T17:23:13.215Z,42.15
2022-12-04T17:25:40.349Z,42.15
2022-12-04T17:28:07.785Z,43.70
2022-12-04T17:30:36.494Z,46.13
2022-12-04T17:33:04.045Z,41.80
2022-12-04T17:35:31.465Z,48.83
2022-12-04T17:38:04.071Z,44.72
2022-12-04T17:40:33.363Z,43.38
2022-12-04T17:43:01.247Z,48.38
2022-12-04T17:45:28.671Z,46.40
2022-12-04T17:47:55.842Z,50.35
2022-12-04T17:50:23.254Z,45.22
2022-12-04T17:52:50.028Z,46.00
2022-12-04T17:55:16.750Z,44.75
2022-12-04T17:57:43.434Z,46.20
2022-12-04T18:00:10.796Z,44.88
2022-12-04T18:02:42.524Z,44.55
2022-12-04T18:05:10.014Z,44.95
2022-12-04T18:07:36.924Z,48.35
2022-12-04T18:10:03.792Z,48.47
2022-12-04T18:12:30.615Z,45.70
2022-12-04T18:14:57.311Z,44.97
2022-12-04T18:17:24.195Z,53.67
2022-12-04T18:19:51.057Z,45.47
2022-12-04T18:22:17.903Z,42.28
2022-12-04T18:24:45.056Z,49.03
2022-12-04T18:27:11.888Z,46.25
2022-12-04T18:29:39.139Z,47.75
2022-12-04T18:32:09.353Z,46.85
2022-12-04T18:34:37.365Z,45.53
2022-12-04T18:37:04.275Z,45.38
2022-12-04T18:39:30.998Z,45.95
2022-12-04T18:41:57.983Z,46.58
2022-12-04T18:44:26.021Z,44.53
2022-12-04T18:46:53.555Z,49.22
2022-12-04T18:49:20.369Z,48.40
2022-12-04T18:51:50.114Z,49.75
2022-12-04T18:54:23.539Z,49.10
2022-12-04T18:56:51.101Z,47.35
2022-12-04T18:59:23.317Z,48.80
2022-12-04T19:01:50.573Z,45.10
2022-12-04T19:04:18.754Z,47.75
2022-12-04T19:06:48.346Z,49.60
2022-12-04T19:09:18.885Z,48.28
2022-12-04T19:11:46.010Z,47.05
2022-12-04T19:14:21.017Z,46.28
2022-12-04T19:16:50.066Z,46.22
2022-12-04T19:19:17.074Z,53.95
2022-12-04T19:21:44.565Z,47.55
2022-12-04T19:24:11.797Z,49.95
2022-12-04T19:26:38.747Z,48.08
2022-12-04T19:29:06.624Z,47.90
2022-12-04T19:31:35.912Z,49.72
2022-12-04T19:34:03.481Z,45.67
2022-12-04T19:36:31.995Z,50.20
2022-12-04T19:38:59.646Z,48.85
2022-12-04T19:41:30.171Z,49.60
2022-12-04T19:43:59.172Z,50.38
2022-12-04T19:46:28.600Z,47.53
2022-12-04T19:49:01.646Z,50.80
2022-12-04T19:51:31.998Z,52.75
2022-12-04T19:53:59.172Z,50.60
2022-12-04T19:56:28.850Z,52.58
2022-12-04T19:58:58.430Z,51.92
2022-12-04T20:01:28.440Z,50.45
2022-12-04T20:03:56.759Z,48.00
2022-12-04T20:06:28.592Z,53.13
2022-12-04T20:09:01.133Z,53.20
2022-12-04T20:11:29.172Z,52.50
2022-12-04T20:13:56.925Z,51.33
2022-12-04T20:16:25.542Z,53.42
2022-12-04T20:18:52.940Z,51.55
2022-12-04T20:21:20.022Z,55.90
2022-12-04T20:23:51.248Z,52.72
2022-12-04T20:26:21.958Z,57.13
2022-12-04T20:28:48.993Z,57.80
2022-12-04T20:31:28.616Z,50.08
2022-12-04T20:33:56.907Z,59.08
2022-12-04T20:36:26.660Z,55.25
2022-12-04T20:39:00.457Z,54.08
2022-12-04T20:41:29.260Z,54.45
2022-12-04T20:43:58.630Z,53.13
2022-12-04T20:46:28.425Z,55.33
2022-12-04T20:48:55.333Z,56.83
2022-12-04T20:51:26.714Z,53.40
2022-12-04T20:53:58.104Z,52.47
2022-12-04T20:56:26.741Z,58.67
2022-12-04T20:58:55.162Z,58.03
2022-12-04T21:01:24.320Z,56.03
2022-12-04T21:03:52.439Z,57.33
2022-12-04T21:06:27.341Z,62.38
2022-12-04T21:09:00.424Z,53.45
2022-12-04T21:11:30.169Z,54.08
2022-12-04T21:14:17.038Z,54.80
2022-12-04T21:16:44.213Z,53.10
2022-12-04T21:19:13.272Z,55.45
2022-12-04T21:21:40.124Z,53.83
2022-12-04T21:24:08.715Z,53.42
2022-12-04T21:26:35.715Z,54.85
2022-12-04T21:29:04.196Z,55.53
2022-12-04T21:31:31.870Z,50.50
2022-12-04T21:33:59.833Z,51.15
2022-12-04T21:36:28.451Z,55.00
2022-12-04T21:38:55.942Z,53.55
2022-12-04T21:41:55.436Z,52.83
2022-12-04T21:44:24.295Z,51.15
2022-12-04T21:46:53.705Z,51.92
2022-12-04T21:49:20.767Z,47.40
2022-12-04T21:52:02.825Z,48.13
2022-12-04T21:54:30.075Z,45.42
2022-12-04T21:56:57.544Z,44.60
2022-12-04T21:59:25.701Z,46.85
2022-12-04T22:01:53.949Z,49.47
2022-12-04T22:04:21.004Z,45.03
2022-12-04T22:06:48.008Z,42.85
2022-12-04T22:09:14.800Z,46.38
2022-12-04T22:11:42.884Z,43.65
2022-12-04T22:14:10.508Z,43.45
2022-12-04T22:16:41.900Z,39.47
2022-12-04T22:19:11.144Z,40.67
2022-12-04T22:21:38.316Z,43.28
2022-12-04T22:24:24.944Z,40.03
2022-12-04T22:26:51.733Z,40.45
2022-12-04T22:29:48.697Z,38.25
2022-12-04T22:32:05.644Z,38.90
2022-12-04T22:34:32.349Z,38.60
2022-12-04T22:37:00.339Z,41.85
2022-12-04T22:39:28.301Z,40.28
2022-12-04T22:41:55.556Z,41.78
2022-12-04T22:44:22.480Z,43.88
2022-12-04T22:46:49.157Z,40.95
2022-12-04T22:49:15.988Z,35.13
2022-12-04T22:51:42.706Z,38.63
2022-12-04T22:54:14.008Z,38.42
2022-12-04T22:56:41.063Z,45.55
2022-12-04T22:59:07.710Z,54.00
2022-12-04T23:01:35.210Z,52.72
2022-12-04T23:04:03.239Z,57.88
2022-12-04T23:06:32.675Z,44.85
2022-12-04T23:09:02.112Z,38.45
2022-12-04T23:11:29.433Z,37.83
2022-12-04T23:14:01.296Z,40.08
2022-12-04T23:16:30.084Z,38.33
2022-12-04T23:18:59.985Z,35.70
2022-12-04T23:21:27.587Z,36.80
2022-12-04T23:23:56.674Z,39.85
2022-12-04T23:26:27.698Z,43.92
2022-12-04T23:28:55.100Z,45.92
2022-12-04T23:31:21.904Z,46.70
2022-12-04T23:33:48.831Z,43.83
2022-12-04T23:36:16.148Z,46.53
2022-12-04T23:38:43.904Z,43.03
2022-12-04T23:41:19.762Z,39.03
2022-12-04T23:43:48.022Z,40.28
2022-12-04T23:46:18.177Z,39.17
2022-12-04T23:48:46.379Z,39.70
2022-12-04T23:51:16.029Z,39.67
2022-12-04T23:53:43.312Z,38.97
2022-12-04T23:56:14.902Z,47.28
2022-12-04T23:58:42.752Z,38.88
